createdAt,value
2018-12-12T00:00:12.932Z,4.70
2018-12-12T00:02:48.919Z,5.30
2018-12-12T00:05:24.807Z,4.93
2018-12-12T00:08:00.904Z,5.13
2018-12-12T00:10:37.076Z,5.33
2018-12-12T00:13:13.086Z,5.50
2018-12-12T00:15:49.245Z,5.10
2018-12-12T00:18:25.369Z,5.30
2018-12-12T00:21:01.391Z,5.30
2018-12-12T00:23:37.482Z,5.33
2018-12-12T00:26:13.473Z,4.93
2018-12-12T00:28:49.313Z,5.13
2018-12-12T00:31:25.265Z,4.80
2018-12-12T00:34:01.335Z,5.27
2018-12-12T00:36:37.168Z,5.30
2018-12-12T00:39:13.201Z,5.47
2018-12-12T00:41:49.211Z,5.53
2018-12-12T00:44:25.107Z,5.00
2018-12-12T00:47:01.262Z,5.37
2018-12-12T00:49:37.472Z,5.67
2018-12-12T00:52:13.357Z,5.33
2018-12-12T00:54:49.848Z,5.33
2018-12-12T00:57:26.056Z,5.13
2018-12-12T01:00:02.032Z,4.80
2018-12-12T01:02:38.209Z,5.03
2018-12-12T01:05:14.215Z,5.73
2018-12-12T01:07:50.151Z,4.97
2018-12-12T01:10:26.049Z,5.33
2018-12-12T01:13:02.164Z,5.67
2018-12-12T01:15:37.967Z,5.27
2018-12-12T01:18:14.159Z,5.20
2018-12-12T01:20:50.091Z,5.57
2018-12-12T01:23:26.044Z,5.37
2018-12-12T01:26:01.923Z,5.00
2018-12-12T01:28:37.905Z,5.20
2018-12-12T01:31:13.995Z,5.13
2018-12-12T01:33:49.974Z,4.60
2018-12-12T01:36:25.802Z,4.60
2018-12-12T01:39:01.713Z,5.40
2018-12-12T01:41:37.673Z,5.67
2018-12-12T01:44:13.615Z,5.50
2018-12-12T01:46:49.553Z,5.17
2018-12-12T01:49:25.531Z,5.80
2018-12-12T01:52:01.411Z,5.53
2018-12-12T01:54:37.381Z,5.60
2018-12-12T01:57:13.306Z,5.90
2018-12-12T01:59:49.298Z,5.23
2018-12-12T02:02:25.211Z,5.60
2018-12-12T02:05:01.288Z,5.97
2018-12-12T02:07:32.423Z,5.90
2018-12-12T02:10:03.289Z,6.17
2018-12-12T02:12:34.287Z,6.07
2018-12-12T02:15:05.582Z,6.37
2018-12-12T02:17:36.355Z,6.00
2018-12-12T02:20:07.263Z,6.60
2018-12-12T02:22:38.901Z,6.53
2018-12-12T02:25:09.605Z,5.77
2018-12-12T02:27:40.316Z,6.50
2018-12-12T02:30:11.088Z,6.60
2018-12-12T02:32:41.785Z,6.67
2018-12-12T02:35:12.518Z,6.50
2018-12-12T02:37:43.309Z,6.87
2018-12-12T02:40:14.167Z,6.23
2018-12-12T02:42:44.897Z,5.73
2018-12-12T02:45:15.750Z,6.17
2018-12-12T02:47:46.530Z,5.87
2018-12-12T02:50:17.276Z,6.57
2018-12-12T02:52:48.599Z,6.83
2018-12-12T02:55:19.311Z,6.30
2018-12-12T02:57:49.997Z,6.53
2018-12-12T03:00:20.739Z,6.57
2018-12-12T03:02:51.542Z,6.20
2018-12-12T03:05:22.238Z,6.73
2018-12-12T03:07:52.947Z,6.77
2018-12-12T03:10:23.629Z,6.67
2018-12-12T03:12:54.316Z,6.30
2018-12-12T03:15:25.064Z,6.73
2018-12-12T03:17:55.962Z,6.67
2018-12-12T03:20:26.694Z,6.77
2018-12-12T03:22:57.520Z,6.20
2018-12-12T03:25:28.350Z,6.10
2018-12-12T03:27:59.187Z,6.77
2018-12-12T03:30:29.936Z,7.13
2018-12-12T03:33:00.790Z,6.50
2018-12-12T03:35:31.563Z,6.50
2018-12-12T03:38:02.266Z,7.03
2018-12-12T03:40:34.071Z,6.80
2018-12-12T03:43:04.995Z,6.90
2018-12-12T03:45:35.769Z,7.17
2018-12-12T03:48:06.560Z,6.77
2018-12-12T03:50:37.331Z,6.30
2018-12-12T03:53:08.068Z,6.17
2018-12-12T03:55:38.908Z,6.50
2018-12-12T03:58:09.629Z,6.70
2018-12-12T04:00:40.340Z,6.77
2018-12-12T04:03:11.206Z,6.50
2018-12-12T04:05:41.928Z,7.10
2018-12-12T04:08:12.652Z,7.20
2018-12-12T04:10:43.452Z,7.33
2018-12-12T04:13:14.198Z,6.80
2018-12-12T04:15:44.873Z,7.80
2018-12-12T04:18:15.636Z,7.87
2018-12-12T04:20:46.353Z,7.37
2018-12-12T04:23:17.134Z,7.73
2018-12-12T04:25:47.791Z,8.13
2018-12-12T04:28:18.512Z,7.70
2018-12-12T04:30:49.375Z,7.23
2018-12-12T04:33:20.045Z,8.47
2018-12-12T04:35:50.741Z,7.73
2018-12-12T04:38:21.428Z,7.87
2018-12-12T04:40:52.119Z,8.77
2018-12-12T04:43:22.787Z,8.50
2018-12-12T04:45:53.510Z,8.67
2018-12-12T04:48:24.197Z,8.43
2018-12-12T04:50:54.952Z,8.30
2018-12-12T04:53:25.733Z,8.27
2018-12-12T04:55:56.476Z,8.07
2018-12-12T04:58:27.225Z,8.20
2018-12-12T05:00:58.036Z,8.57
2018-12-12T05:03:28.860Z,8.07
2018-12-12T05:05:59.602Z,8.03
2018-12-12T05:08:30.342Z,8.17
2018-12-12T05:11:01.014Z,7.93
2018-12-12T05:13:31.788Z,7.73
2018-12-12T05:16:02.532Z,8.07
2018-12-12T05:18:33.366Z,7.90
2018-12-12T05:21:04.153Z,7.40
2018-12-12T05:23:34.933Z,7.33
2018-12-12T05:26:05.761Z,7.80
2018-12-12T05:28:36.565Z,7.43
2018-12-12T05:31:07.617Z,7.50
2018-12-12T05:33:38.524Z,8.17
2018-12-12T05:36:09.356Z,7.73
2018-12-12T05:38:40.113Z,7.33
2018-12-12T05:41:10.872Z,7.57
2018-12-12T05:43:41.626Z,7.53
2018-12-12T05:46:12.418Z,7.77
2018-12-12T05:48:43.188Z,8.10
2018-12-12T05:51:13.971Z,8.13
2018-12-12T05:53:44.681Z,7.33
2018-12-12T05:56:15.530Z,7.90
2018-12-12T05:58:46.266Z,7.93
2018-12-12T06:01:17.056Z,8.17
2018-12-12T06:03:47.826Z,7.93
2018-12-12T06:06:18.663Z,7.87
2018-12-12T06:08:49.578Z,7.87
2018-12-12T06:14:30.696Z,7.97
2018-12-12T06:17:06.440Z,8.30
2018-12-12T06:19:42.574Z,7.80
2018-12-12T06:22:18.693Z,8.60
2018-12-12T06:24:54.223Z,9.40
2018-12-12T06:27:29.701Z,8.67
2018-12-12T06:30:06.306Z,9.37
2018-12-12T06:32:41.948Z,8.70
2018-12-12T06:35:17.393Z,9.00
2018-12-12T06:37:52.941Z,8.40
2018-12-12T06:40:28.575Z,8.80
2018-12-12T06:43:04.257Z,7.87
2018-12-12T06:45:39.951Z,8.27
2018-12-12T06:48:15.623Z,8.40
2018-12-12T06:50:51.039Z,9.23
2018-12-12T06:53:26.599Z,9.07
2018-12-12T06:56:02.292Z,8.87
2018-12-12T06:58:37.917Z,9.23
2018-12-12T07:01:13.455Z,9.10
2018-12-12T07:03:49.645Z,9.37
2018-12-12T07:06:25.311Z,10.03
2018-12-12T07:09:00.959Z,9.73
2018-12-12T07:11:36.888Z,9.47
2018-12-12T07:14:12.738Z,9.33
2018-12-12T07:16:48.492Z,9.13
2018-12-12T07:19:24.141Z,9.23
2018-12-12T07:21:59.995Z,9.90
2018-12-12T07:24:35.696Z,9.20
2018-12-12T07:27:11.171Z,10.23
2018-12-12T07:29:46.795Z,10.23
2018-12-12T07:32:25.980Z,9.97
2018-12-12T07:35:00.071Z,9.53
2018-12-12T07:37:35.901Z,10.50
2018-12-12T07:40:11.819Z,10.30
2018-12-12T07:42:47.436Z,9.53
2018-12-12T07:45:23.135Z,9.70
2018-12-12T07:48:01.618Z,9.80
2018-12-12T07:50:36.514Z,10.20
2018-12-12T07:53:12.200Z,10.17
2018-12-12T07:55:47.631Z,9.90
2018-12-12T07:58:23.220Z,10.13
2018-12-12T08:00:59.047Z,9.87
2018-12-12T08:03:34.658Z,9.67
2018-12-12T08:06:10.222Z,9.57
2018-12-12T08:08:45.827Z,9.33
2018-12-12T08:11:21.599Z,9.97
2018-12-12T08:13:57.263Z,9.93
2018-12-12T08:16:32.899Z,9.33
2018-12-12T08:19:08.543Z,9.53
2018-12-12T08:21:44.058Z,9.50
2018-12-12T08:24:19.660Z,9.57
2018-12-12T08:26:55.498Z,9.43
2018-12-12T08:29:31.023Z,8.83
2018-12-12T08:32:06.604Z,8.63
2018-12-12T08:34:42.085Z,8.43
2018-12-12T08:37:17.959Z,9.73
2018-12-12T08:39:53.706Z,8.90
2018-12-12T08:42:29.372Z,9.30
2018-12-12T08:45:06.897Z,9.20
2018-12-12T08:47:42.587Z,8.67
2018-12-12T08:50:18.108Z,9.23
2018-12-12T08:52:53.829Z,8.73
2018-12-12T08:55:29.409Z,8.43
2018-12-12T08:58:05.066Z,8.60
2018-12-12T09:00:40.724Z,9.10
2018-12-12T09:03:17.700Z,8.30
2018-12-12T09:05:53.781Z,8.57
2018-12-12T09:08:29.359Z,7.90
2018-12-12T09:11:05.142Z,8.97
2018-12-12T09:13:40.728Z,8.30
2018-12-12T09:16:16.609Z,8.53
2018-12-12T09:18:52.149Z,8.30
2018-12-12T09:21:27.745Z,8.67
2018-12-12T09:24:03.361Z,8.20
2018-12-12T09:26:38.878Z,8.60
2018-12-12T09:29:14.397Z,8.77
2018-12-12T09:31:50.052Z,8.50
2018-12-12T09:34:25.652Z,8.00
2018-12-12T09:37:01.289Z,8.27
2018-12-12T09:39:37.254Z,9.27
2018-12-12T09:42:12.858Z,8.80
2018-12-12T09:44:48.532Z,8.70
2018-12-12T09:47:24.546Z,9.17
2018-12-12T09:50:00.226Z,8.43
2018-12-12T09:52:35.896Z,8.93
2018-12-12T09:55:11.424Z,8.47
2018-12-12T09:57:46.895Z,8.73
2018-12-12T10:00:22.649Z,8.07
2018-12-12T10:02:58.364Z,8.37
2018-12-12T10:05:33.978Z,8.53
2018-12-12T10:08:09.424Z,7.87
2018-12-12T10:10:45.195Z,8.57
2018-12-12T10:13:20.875Z,7.97
2018-12-12T10:15:56.540Z,8.17
2018-12-12T10:18:32.213Z,7.23
2018-12-12T10:21:07.808Z,7.90
2018-12-12T10:23:43.474Z,8.13
2018-12-12T10:26:19.051Z,8.53
2018-12-12T10:28:55.750Z,8.30
2018-12-12T10:31:31.393Z,8.73
2018-12-12T10:34:07.207Z,8.30
2018-12-12T10:36:42.902Z,8.37
2018-12-12T10:39:18.506Z,8.83
2018-12-12T10:41:54.238Z,8.57
2018-12-12T10:44:29.830Z,8.30
2018-12-12T10:47:05.734Z,8.37
2018-12-12T10:49:41.217Z,8.53
2018-12-12T10:52:16.990Z,7.90
2018-12-12T10:54:52.654Z,8.77
2018-12-12T10:57:28.165Z,7.93
2018-12-12T11:00:03.761Z,8.17
2018-12-12T11:02:44.648Z,8.43
2018-12-12T11:05:20.443Z,8.40
2018-12-12T11:07:56.115Z,8.43
2018-12-12T11:10:31.555Z,8.63
2018-12-12T11:13:07.329Z,8.40
2018-12-12T11:15:42.995Z,9.07
2018-12-12T11:18:18.671Z,7.60
2018-12-12T11:20:54.129Z,8.53
2018-12-12T11:23:29.664Z,8.47
2018-12-12T11:26:05.521Z,8.47
2018-12-12T11:28:41.114Z,8.17
2018-12-12T11:31:16.872Z,9.10
2018-12-12T11:33:52.559Z,8.80
2018-12-12T11:36:28.153Z,9.13
2018-12-12T11:39:04.378Z,9.00
2018-12-12T11:41:39.986Z,10.50
2018-12-12T11:44:15.528Z,9.37
2018-12-12T11:46:51.167Z,10.77
2018-12-12T11:49:26.828Z,11.53
2018-12-12T11:52:02.359Z,11.97
2018-12-12T11:54:38.129Z,12.60
2018-12-12T11:57:14.144Z,12.47
2018-12-12T11:59:49.767Z,13.13
2018-12-12T12:02:25.471Z,12.63
2018-12-12T12:05:00.951Z,13.07
2018-12-12T12:07:36.746Z,13.03
2018-12-12T12:10:12.852Z,13.70
2018-12-12T12:12:48.515Z,14.30
2018-12-12T12:15:24.123Z,14.47
2018-12-12T12:17:59.902Z,14.80
2018-12-12T12:20:35.592Z,13.53
2018-12-12T12:23:11.188Z,13.33
2018-12-12T12:25:46.681Z,12.93
2018-12-12T12:28:22.145Z,12.70
2018-12-12T12:30:57.818Z,11.33
2018-12-12T12:33:33.402Z,11.10
2018-12-12T12:36:09.002Z,11.07
2018-12-12T12:38:44.644Z,9.47
2018-12-12T12:41:20.374Z,9.90
2018-12-12T12:43:55.867Z,9.17
2018-12-12T12:46:31.506Z,8.60
2018-12-12T12:49:07.134Z,8.30
2018-12-12T12:51:42.788Z,7.77
2018-12-12T12:54:18.504Z,8.27
2018-12-12T12:56:54.166Z,7.80
2018-12-12T12:59:29.659Z,8.07
2018-12-12T13:02:05.179Z,8.10
2018-12-12T13:04:40.967Z,7.23
2018-12-12T13:07:16.624Z,7.43
2018-12-12T13:09:52.152Z,7.67
2018-12-12T13:12:27.743Z,7.80
2018-12-12T13:15:03.684Z,6.83
2018-12-12T13:17:39.372Z,7.47
2018-12-12T13:20:14.866Z,6.47
2018-12-12T13:22:50.429Z,5.97
2018-12-12T13:25:25.906Z,6.23
2018-12-12T13:28:01.397Z,6.20
2018-12-12T13:30:37.258Z,6.80
2018-12-12T13:33:13.071Z,7.33
2018-12-12T13:35:48.694Z,7.63
2018-12-12T13:38:24.478Z,8.70
2018-12-12T13:41:00.003Z,8.13
2018-12-12T13:43:35.564Z,9.07
2018-12-12T13:46:11.092Z,8.60
2018-12-12T13:48:46.711Z,9.10
2018-12-12T13:51:22.359Z,9.93
2018-12-12T13:53:57.906Z,10.10
2018-12-12T13:56:33.711Z,8.90
2018-12-12T13:59:09.251Z,8.73
2018-12-12T14:01:45.021Z,9.17
2018-12-12T14:04:22.890Z,8.70
2018-12-12T14:06:58.406Z,8.77
2018-12-12T14:09:34.019Z,8.30
2018-12-12T14:12:09.580Z,8.43
2018-12-12T14:14:45.681Z,7.47
2018-12-12T14:17:21.323Z,8.00
2018-12-12T14:19:59.635Z,7.53
2018-12-12T14:22:35.437Z,7.63
2018-12-12T14:25:11.156Z,8.50
2018-12-12T14:27:46.676Z,8.00
2018-12-12T14:30:22.314Z,9.03
2018-12-12T14:32:57.923Z,8.87
2018-12-12T14:35:33.554Z,10.00
2018-12-12T14:38:09.317Z,9.60
2018-12-12T14:40:44.987Z,9.87
2018-12-12T14:43:20.545Z,10.10
2018-12-12T14:45:56.068Z,9.90
2018-12-12T14:48:31.529Z,10.17
2018-12-12T14:51:07.163Z,10.30
2018-12-12T14:53:42.635Z,10.57
2018-12-12T14:56:18.354Z,11.03
2018-12-12T14:58:54.082Z,10.97
2018-12-12T15:01:29.943Z,11.47
2018-12-12T15:04:05.614Z,11.30
2018-12-12T15:06:41.667Z,11.23
2018-12-12T15:09:17.311Z,10.97
2018-12-12T15:11:52.921Z,11.70
2018-12-12T15:14:28.344Z,10.90
2018-12-12T15:17:04.033Z,10.93
2018-12-12T15:19:39.690Z,10.37
2018-12-12T15:22:15.341Z,10.27
2018-12-12T15:24:51.006Z,10.00
2018-12-12T15:27:26.627Z,9.90
2018-12-12T15:30:02.190Z,10.57
2018-12-12T15:32:37.802Z,9.93
2018-12-12T15:35:13.418Z,10.00
2018-12-12T15:37:49.064Z,9.80
2018-12-12T15:40:24.762Z,9.77
2018-12-12T15:43:00.502Z,9.87
2018-12-12T15:45:36.431Z,9.30
2018-12-12T15:48:12.208Z,9.43
2018-12-12T15:50:47.822Z,9.93
2018-12-12T15:53:23.521Z,9.40
2018-12-12T15:55:59.121Z,9.67
2018-12-12T15:58:34.711Z,9.27
2018-12-12T16:01:10.192Z,9.13
2018-12-12T16:03:45.964Z,9.83
2018-12-12T16:06:21.552Z,9.10
2018-12-12T16:08:57.245Z,9.00
2018-12-12T16:11:32.804Z,9.37
2018-12-12T16:14:08.391Z,9.57
2018-12-12T16:16:44.126Z,9.40
2018-12-12T16:19:19.771Z,9.27
2018-12-12T16:21:55.477Z,9.70
2018-12-12T16:24:31.057Z,9.73
2018-12-12T16:27:06.603Z,10.13
2018-12-12T16:29:42.113Z,9.50
2018-12-12T16:32:18.747Z,10.27
2018-12-12T16:34:55.858Z,10.53
2018-12-12T16:37:31.789Z,10.27
2018-12-12T16:40:07.640Z,9.97
2018-12-12T16:42:43.465Z,9.83
2018-12-12T16:45:19.070Z,9.53
2018-12-12T16:47:54.602Z,10.10
2018-12-12T16:50:30.192Z,9.87
2018-12-12T16:53:00.655Z,9.90
2018-12-12T16:55:31.110Z,10.27
2018-12-12T16:58:01.497Z,9.93
2018-12-12T17:00:31.935Z,9.67
2018-12-12T17:03:02.343Z,10.03
2018-12-12T17:05:32.831Z,10.27
2018-12-12T17:08:03.275Z,10.80
2018-12-12T17:10:33.965Z,9.93
2018-12-12T17:13:04.396Z,10.03
2018-12-12T17:15:34.883Z,9.90
2018-12-12T17:18:05.399Z,10.03
2018-12-12T17:20:35.916Z,9.67
2018-12-12T17:23:06.363Z,9.40
2018-12-12T17:25:36.908Z,9.53
2018-12-12T17:28:07.372Z,9.30
2018-12-12T17:30:37.800Z,9.13
2018-12-12T17:33:08.324Z,9.77
2018-12-12T17:35:38.807Z,9.20
2018-12-12T17:38:09.195Z,8.77
2018-12-12T17:40:39.623Z,9.07
2018-12-12T17:43:10.072Z,9.20
2018-12-12T17:45:40.529Z,9.30
2018-12-12T17:48:10.998Z,9.00
2018-12-12T17:50:41.516Z,9.40
2018-12-12T17:53:12.022Z,8.77
2018-12-12T17:55:42.537Z,10.00
2018-12-12T17:58:13.059Z,10.47
2018-12-12T18:00:43.670Z,9.50
2018-12-12T18:03:14.113Z,10.50
2018-12-12T18:05:44.551Z,10.43
2018-12-12T18:08:15.094Z,10.53
2018-12-12T18:10:45.558Z,10.70
2018-12-12T18:13:16.352Z,10.07
2018-12-12T18:15:46.855Z,10.33
2018-12-12T18:18:17.343Z,10.33
2018-12-12T18:20:48.360Z,10.30
2018-12-12T18:23:18.851Z,10.67
2018-12-12T18:25:49.327Z,10.67
2018-12-12T18:28:19.870Z,10.30
2018-12-12T18:30:50.316Z,10.77
2018-12-12T18:33:20.782Z,10.70
2018-12-12T18:38:36.281Z,11.13
2018-12-12T18:41:06.651Z,10.67
2018-12-12T18:43:37.117Z,10.20
2018-12-12T18:46:07.567Z,10.63
2018-12-12T18:48:38.040Z,9.57
2018-12-12T18:51:08.510Z,9.93
2018-12-12T18:53:38.996Z,9.23
2018-12-12T18:56:09.478Z,9.83
2018-12-12T18:58:39.927Z,9.60
2018-12-12T19:01:10.485Z,10.03
2018-12-12T19:03:40.952Z,9.83
2018-12-12T19:06:11.487Z,9.43
2018-12-12T19:08:41.947Z,9.33
2018-12-12T19:11:12.376Z,9.57
2018-12-12T19:13:42.878Z,9.37
2018-12-12T19:16:13.475Z,9.50
2018-12-12T19:18:43.954Z,9.20
2018-12-12T19:21:14.504Z,10.03
2018-12-12T19:23:45.338Z,9.37
2018-12-12T19:26:15.893Z,9.53
2018-12-12T19:28:46.379Z,9.37
2018-12-12T19:31:16.872Z,9.37
2018-12-12T19:33:47.324Z,8.83
2018-12-12T19:36:17.865Z,8.93
2018-12-12T19:38:48.692Z,9.57
2018-12-12T19:41:19.232Z,9.90
2018-12-12T19:43:49.708Z,9.20
2018-12-12T19:46:20.152Z,9.10
2018-12-12T19:48:50.643Z,9.20
2018-12-12T19:51:21.240Z,9.10
2018-12-12T19:53:51.764Z,8.83
2018-12-12T19:56:22.249Z,9.60
2018-12-12T19:58:52.724Z,9.20
2018-12-12T20:01:23.161Z,9.07
2018-12-12T20:03:53.657Z,9.17
2018-12-12T20:06:24.268Z,9.03
2018-12-12T20:08:54.901Z,9.50
2018-12-12T20:11:25.525Z,9.43
2018-12-12T20:13:56.078Z,9.30
2018-12-12T20:16:26.875Z,9.13
2018-12-12T20:18:57.474Z,8.63
2018-12-12T20:21:28.046Z,9.40
2018-12-12T20:23:58.534Z,9.73
2018-12-12T20:26:29.139Z,9.43
2018-12-12T20:28:59.631Z,9.40
2018-12-12T20:31:30.153Z,9.87
2018-12-12T20:34:00.764Z,10.00
2018-12-12T20:36:31.298Z,9.60
2018-12-12T20:39:01.807Z,10.43
2018-12-12T20:41:32.313Z,10.33
2018-12-12T20:44:02.872Z,10.50
2018-12-12T20:46:33.406Z,9.83
2018-12-12T20:49:03.940Z,9.77
2018-12-12T20:51:34.587Z,9.87
2018-12-12T20:54:05.115Z,9.97
2018-12-12T20:56:35.608Z,10.67
2018-12-12T20:59:06.099Z,9.97
2018-12-12T21:01:36.770Z,10.57
2018-12-12T21:04:07.227Z,9.77
2018-12-12T21:06:37.871Z,10.47
2018-12-12T21:09:08.553Z,10.43
2018-12-12T21:11:39.272Z,10.27
2018-12-12T21:14:09.750Z,10.47
2018-12-12T21:16:40.255Z,9.60
2018-12-12T21:19:10.652Z,10.13
2018-12-12T21:21:41.109Z,9.67
2018-12-12T21:24:11.570Z,9.23
2018-12-12T21:26:42.017Z,8.90
2018-12-12T21:29:12.512Z,9.20
2018-12-12T21:31:43.098Z,9.83
2018-12-12T21:34:13.555Z,9.13
2018-12-12T21:36:44.037Z,9.33
2018-12-12T21:39:14.469Z,8.87
2018-12-12T21:41:44.891Z,9.80
2018-12-12T21:44:15.323Z,9.87
2018-12-12T21:46:45.805Z,9.63
2018-12-12T21:49:16.172Z,9.90
2018-12-12T21:51:46.592Z,9.60
2018-12-12T21:54:17.077Z,10.17
2018-12-12T21:56:47.507Z,10.37
2018-12-12T21:59:17.962Z,10.47
2018-12-12T22:01:48.421Z,9.87
2018-12-12T22:04:18.834Z,10.03
2018-12-12T22:06:49.310Z,9.57
2018-12-12T22:09:19.774Z,9.70
2018-12-12T22:11:50.301Z,9.53
2018-12-12T22:14:20.787Z,10.03
2018-12-12T22:16:51.290Z,9.67
2018-12-12T22:19:21.776Z,9.67
2018-12-12T22:21:52.296Z,9.53
2018-12-12T22:24:22.752Z,10.20
2018-12-12T22:26:53.226Z,10.00
2018-12-12T22:32:24.977Z,9.77
2018-12-12T22:34:55.423Z,9.27
2018-12-12T22:37:25.903Z,9.90
2018-12-12T22:39:56.340Z,10.20
2018-12-12T22:42:26.897Z,9.53
2018-12-12T22:44:57.308Z,9.63
2018-12-12T22:47:27.810Z,9.77
2018-12-12T22:49:58.298Z,9.43
2018-12-12T22:52:28.804Z,10.00
2018-12-12T22:54:59.303Z,8.90
2018-12-12T22:57:29.778Z,9.60
2018-12-12T23:00:00.275Z,9.27
2018-12-12T23:02:30.775Z,9.67
2018-12-12T23:05:01.233Z,9.73
2018-12-12T23:07:31.673Z,10.03
2018-12-12T23:10:02.117Z,10.50
2018-12-12T23:12:32.605Z,9.97
2018-12-12T23:15:03.112Z,10.40
2018-12-12T23:17:33.540Z,9.87
2018-12-12T23:20:04.210Z,10.00
2018-12-12T23:22:34.636Z,10.40
2018-12-12T23:25:05.344Z,10.57
2018-12-12T23:27:35.845Z,10.57
2018-12-12T23:30:07.974Z,11.23
2018-12-12T23:32:38.464Z,11.47
2018-12-12T23:35:09.115Z,10.17
2018-12-12T23:37:39.605Z,10.93
2018-12-12T23:40:10.054Z,10.53
2018-12-12T23:42:40.494Z,11.10
2018-12-12T23:45:11.089Z,10.97
2018-12-12T23:47:41.548Z,10.07
2018-12-12T23:50:12.000Z,10.30
2018-12-12T23:52:42.506Z,10.63
2018-12-12T23:55:12.989Z,10.07
2018-12-12T23:57:43.716Z,10.30
